sensor_id;sensor_type;location;lat;lon;timestamp;temperature;humidity
5940;DHT22;2995;-31.998;115.906;2024-02-26T00:02:06;27.90;99.90
5940;DHT22;2995;-31.998;115.906;2024-02-26T00:04:38;28.00;99.90
5940;DHT22;2995;-31.998;115.906;2024-02-26T00:07:09;27.40;99.90
5940;DHT22;2995;-31.998;115.906;2024-02-26T00:09:42;27.80;99.90
5940;DHT22;2995;-31.998;115.906;2024-02-26T00:12:13;27.90;99.90
5940;DHT22;2995;-31.998;115.906;2024-02-26T00:14:45;27.30;99.90
5940;DHT22;2995;-31.998;115.906;2024-02-26T00:17:17;26.90;99.90
5940;DHT22;2995;-31.998;115.906;2024-02-26T00:19:49;27.20;99.90
5940;DHT22;2995;-31.998;115.906;2024-02-26T00:22:20;27.20;99.90
5940;DHT22;2995;-31.998;115.906;2024-02-26T00:24:54;27.30;99.90
5940;DHT22;2995;-31.998;115.906;2024-02-26T00:27:25;27.20;99.90
5940;DHT22;2995;-31.998;115.906;2024-02-26T00:29:56;27.00;99.90
5940;DHT22;2995;-31.998;115.906;2024-02-26T00:32:27;26.80;99.90
5940;DHT22;2995;-31.998;115.906;2024-02-26T00:34:59;26.80;99.90
5940;DHT22;2995;-31.998;115.906;2024-02-26T00:37:30;26.90;99.90
5940;DHT22;2995;-31.998;115.906;2024-02-26T00:40:03;26.90;99.90
5940;DHT22;2995;-31.998;115.906;2024-02-26T00:42:35;27.20;99.90
5940;DHT22;2995;-31.998;115.906;2024-02-26T00:45:09;27.40;99.90
5940;DHT22;2995;-31.998;115.906;2024-02-26T00:47:40;27.40;99.90
5940;DHT22;2995;-31.998;115.906;2024-02-26T00:50:13;28.50;99.90
5940;DHT22;2995;-31.998;115.906;2024-02-26T00:52:44;29.80;99.90
5940;DHT22;2995;-31.998;115.906;2024-02-26T00:55:17;30.10;99.90
5940;DHT22;2995;-31.998;115.906;2024-02-26T00:57:49;31.20;99.90
5940;DHT22;2995;-31.998;115.906;2024-02-26T01:00:20;32.00;99.90
5940;DHT22;2995;-31.998;115.906;2024-02-26T01:02:52;30.80;99.90
5940;DHT22;2995;-31.998;115.906;2024-02-26T01:05:23;30.70;99.90
5940;DHT22;2995;-31.998;115.906;2024-02-26T01:07:54;30.40;99.90
5940;DHT22;2995;-31.998;115.906;2024-02-26T01:10:27;30.30;99.90
5940;DHT22;2995;-31.998;115.906;2024-02-26T01:12:59;29.70;99.90
5940;DHT22;2995;-31.998;115.906;2024-02-26T01:15:30;29.60;99.90
5940;DHT22;2995;-31.998;115.906;2024-02-26T01:18:01;28.80;99.90
5940;DHT22;2995;-31.998;115.906;2024-02-26T01:20:32;28.10;99.90
5940;DHT22;2995;-31.998;115.906;2024-02-26T01:23:04;27.90;99.90
5940;DHT22;2995;-31.998;115.906;2024-02-26T01:25:37;27.80;99.90
5940;DHT22;2995;-31.998;115.906;2024-02-26T01:28:09;27.70;99.90
5940;DHT22;2995;-31.998;115.906;2024-02-26T01:30:40;28.20;99.90
5940;DHT22;2995;-31.998;115.906;2024-02-26T01:33:11;28.40;99.90
5940;DHT22;2995;-31.998;115.906;2024-02-26T01:35:42;28.40;99.90
5940;DHT22;2995;-31.998;115.906;2024-02-26T01:38:14;28.40;99.90
5940;DHT22;2995;-31.998;115.906;2024-02-26T01:40:47;28.50;99.90
5940;DHT22;2995;-31.998;115.906;2024-02-26T01:43:19;28.80;99.90
5940;DHT22;2995;-31.998;115.906;2024-02-26T01:45:50;29.30;99.90
5940;DHT22;2995;-31.998;115.906;2024-02-26T01:48:21;29.30;99.90
5940;DHT22;2995;-31.998;115.906;2024-02-26T01:50:54;29.00;99.90
5940;DHT22;2995;-31.998;115.906;2024-02-26T01:53:25;29.10;99.90
5940;DHT22;2995;-31.998;115.906;2024-02-26T01:55:59;28.80;99.90
5940;DHT22;2995;-31.998;115.906;2024-02-26T01:58:31;28.80;99.90
5940;DHT22;2995;-31.998;115.906;2024-02-26T02:01:03;28.80;99.90
5940;DHT22;2995;-31.998;115.906;2024-02-26T02:03:35;29.00;99.90
5940;DHT22;2995;-31.998;115.906;2024-02-26T02:06:07;29.00;99.90
5940;DHT22;2995;-31.998;115.906;2024-02-26T02:08:39;29.60;99.90
5940;DHT22;2995;-31.998;115.906;2024-02-26T02:11:12;29.60;99.90
5940;DHT22;2995;-31.998;115.906;2024-02-26T02:13:43;29.90;99.90
5940;DHT22;2995;-31.998;115.906;2024-02-26T02:16:14;29.80;99.90
5940;DHT22;2995;-31.998;115.906;2024-02-26T02:18:46;30.10;99.90
5940;DHT22;2995;-31.998;115.906;2024-02-26T02:21:19;29.90;99.90
5940;DHT22;2995;-31.998;115.906;2024-02-26T02:23:50;29.90;99.90
5940;DHT22;2995;-31.998;115.906;2024-02-26T02:26:22;29.70;99.90
5940;DHT22;2995;-31.998;115.906;2024-02-26T02:28:54;29.70;99.90
5940;DHT22;2995;-31.998;115.906;2024-02-26T02:31:26;29.90;99.90
5940;DHT22;2995;-31.998;115.906;2024-02-26T02:33:57;30.10;99.90
5940;DHT22;2995;-31.998;115.906;2024-02-26T02:36:31;30.10;99.90
5940;DHT22;2995;-31.998;115.906;2024-02-26T02:39:02;30.00;99.90
5940;DHT22;2995;-31.998;115.906;2024-02-26T02:41:33;30.20;99.90
5940;DHT22;2995;-31.998;115.906;2024-02-26T02:44:04;30.20;99.90
5940;DHT22;2995;-31.998;115.906;2024-02-26T02:46:35;30.20;99.90
5940;DHT22;2995;-31.998;115.906;2024-02-26T02:49:10;30.50;99.90
5940;DHT22;2995;-31.998;115.906;2024-02-26T02:51:44;30.80;99.90
5940;DHT22;2995;-31.998;115.906;2024-02-26T02:54:15;31.00;99.90
5940;DHT22;2995;-31.998;115.906;2024-02-26T02:56:46;31.30;99.90
5940;DHT22;2995;-31.998;115.906;2024-02-26T02:59:17;31.40;99.90
5940;DHT22;2995;-31.998;115.906;2024-02-26T03:01:49;31.50;99.90
5940;DHT22;2995;-31.998;115.906;2024-02-26T03:04:20;31.30;99.90
5940;DHT22;2995;-31.998;115.906;2024-02-26T03:06:53;31.50;99.90
5940;DHT22;2995;-31.998;115.906;2024-02-26T03:09:25;31.40;99.90
5940;DHT22;2995;-31.998;115.906;2024-02-26T03:11:57;31.20;99.90
5940;DHT22;2995;-31.998;115.906;2024-02-26T03:14:28;31.30;99.90
5940;DHT22;2995;-31.998;115.906;2024-02-26T03:16:59;31.50;99.90
5940;DHT22;2995;-31.998;115.906;2024-02-26T03:19:31;31.60;99.90
5940;DHT22;2995;-31.998;115.906;2024-02-26T03:22:04;31.50;99.90
5940;DHT22;2995;-31.998;115.906;2024-02-26T03:24:35;31.70;99.90
5940;DHT22;2995;-31.998;115.906;2024-02-26T03:27:06;32.00;99.90
5940;DHT22;2995;-31.998;115.906;2024-02-26T03:29:39;32.30;99.90
5940;DHT22;2995;-31.998;115.906;2024-02-26T03:32:10;32.30;99.90
5940;DHT22;2995;-31.998;115.906;2024-02-26T03:34:41;32.20;99.90
5940;DHT22;2995;-31.998;115.906;2024-02-26T03:37:14;32.20;99.90
5940;DHT22;2995;-31.998;115.906;2024-02-26T03:39:46;32.30;99.90
5940;DHT22;2995;-31.998;115.906;2024-02-26T03:42:17;32.20;99.90
5940;DHT22;2995;-31.998;115.906;2024-02-26T03:44:48;32.70;99.90
5940;DHT22;2995;-31.998;115.906;2024-02-26T03:47:19;32.90;99.90
5940;DHT22;2995;-31.998;115.906;2024-02-26T03:49:51;33.30;99.90
5940;DHT22;2995;-31.998;115.906;2024-02-26T03:52:24;33.50;99.90
5940;DHT22;2995;-31.998;115.906;2024-02-26T03:54:55;33.70;99.90
5940;DHT22;2995;-31.998;115.906;2024-02-26T03:57:26;33.70;99.90
5940;DHT22;2995;-31.998;115.906;2024-02-26T03:59:58;33.30;99.90
5940;DHT22;2995;-31.998;115.906;2024-02-26T04:02:29;32.60;99.90
5940;DHT22;2995;-31.998;115.906;2024-02-26T04:05:01;32.90;99.90
5940;DHT22;2995;-31.998;115.906;2024-02-26T04:07:34;33.10;99.90
5940;DHT22;2995;-31.998;115.906;2024-02-26T04:10:10;33.40;99.90
5940;DHT22;2995;-31.998;115.906;2024-02-26T04:12:41;33.50;99.90
5940;DHT22;2995;-31.998;115.906;2024-02-26T04:15:13;33.50;99.90
5940;DHT22;2995;-31.998;115.906;2024-02-26T04:17:44;33.50;99.90
5940;DHT22;2995;-31.998;115.906;2024-02-26T04:20:16;33.80;99.90
5940;DHT22;2995;-31.998;115.906;2024-02-26T04:22:49;33.80;99.90
5940;DHT22;2995;-31.998;115.906;2024-02-26T04:25:21;34.00;99.90
5940;DHT22;2995;-31.998;115.906;2024-02-26T04:27:52;34.10;99.90
5940;DHT22;2995;-31.998;115.906;2024-02-26T04:30:23;33.60;99.90
5940;DHT22;2995;-31.998;115.906;2024-02-26T04:32:55;33.60;99.90
5940;DHT22;2995;-31.998;115.906;2024-02-26T04:35:26;33.40;99.90
5940;DHT22;2995;-31.998;115.906;2024-02-26T04:37:59;33.80;99.90
5940;DHT22;2995;-31.998;115.906;2024-02-26T04:40:30;33.80;99.90
5940;DHT22;2995;-31.998;115.906;2024-02-26T04:43:02;33.90;99.90
5940;DHT22;2995;-31.998;115.906;2024-02-26T04:45:33;33.80;99.90
5940;DHT22;2995;-31.998;115.906;2024-02-26T04:48:05;33.90;99.90
5940;DHT22;2995;-31.998;115.906;2024-02-26T04:50:36;34.00;99.90
5940;DHT22;2995;-31.998;115.906;2024-02-26T04:53:09;33.90;99.90
5940;DHT22;2995;-31.998;115.906;2024-02-26T04:55:40;33.50;99.90
5940;DHT22;2995;-31.998;115.906;2024-02-26T04:58:11;33.30;99.90
5940;DHT22;2995;-31.998;115.906;2024-02-26T05:00:43;33.10;99.90
5940;DHT22;2995;-31.998;115.906;2024-02-26T05:03:14;33.10;99.90
5940;DHT22;2995;-31.998;115.906;2024-02-26T05:05:45;33.10;99.90
5940;DHT22;2995;-31.998;115.906;2024-02-26T05:08:18;32.90;99.90
5940;DHT22;2995;-31.998;115.906;2024-02-26T05:10:49;33.20;99.90
5940;DHT22;2995;-31.998;115.906;2024-02-26T05:13:21;33.30;99.90
5940;DHT22;2995;-31.998;115.906;2024-02-26T05:15:52;33.20;99.90
5940;DHT22;2995;-31.998;115.906;2024-02-26T05:18:24;33.30;99.90
5940;DHT22;2995;-31.998;115.906;2024-02-26T05:20:55;33.40;99.90
5940;DHT22;2995;-31.998;115.906;2024-02-26T05:23:28;33.30;99.90
5940;DHT22;2995;-31.998;115.906;2024-02-26T05:25:59;33.50;99.90
5940;DHT22;2995;-31.998;115.906;2024-02-26T05:28:30;33.90;99.90
5940;DHT22;2995;-31.998;115.906;2024-02-26T05:31:02;33.90;99.90
5940;DHT22;2995;-31.998;115.906;2024-02-26T05:33:34;33.80;99.90
5940;DHT22;2995;-31.998;115.906;2024-02-26T05:36:05;33.80;99.90
5940;DHT22;2995;-31.998;115.906;2024-02-26T05:38:39;33.70;99.90
5940;DHT22;2995;-31.998;115.906;2024-02-26T05:41:10;33.90;99.90
5940;DHT22;2995;-31.998;115.906;2024-02-26T05:43:41;33.90;99.90
5940;DHT22;2995;-31.998;115.906;2024-02-26T05:46:12;33.80;99.90
5940;DHT22;2995;-31.998;115.906;2024-02-26T05:48:43;33.90;99.90
5940;DHT22;2995;-31.998;115.906;2024-02-26T05:51:15;33.80;99.90
5940;DHT22;2995;-31.998;115.906;2024-02-26T05:53:48;33.90;99.90
5940;DHT22;2995;-31.998;115.906;2024-02-26T05:56:22;34.00;99.90
5940;DHT22;2995;-31.998;115.906;2024-02-26T05:58:53;33.80;99.90
5940;DHT22;2995;-31.998;115.906;2024-02-26T06:01:24;33.50;99.90
5940;DHT22;2995;-31.998;115.906;2024-02-26T06:03:56;33.70;99.90
5940;DHT22;2995;-31.998;115.906;2024-02-26T06:06:27;33.40;99.90
5940;DHT22;2995;-31.998;115.906;2024-02-26T06:09:00;33.30;99.90
5940;DHT22;2995;-31.998;115.906;2024-02-26T06:11:30;33.40;99.90
5940;DHT22;2995;-31.998;115.906;2024-02-26T06:14:02;33.30;99.90
5940;DHT22;2995;-31.998;115.906;2024-02-26T06:16:34;33.40;99.90
5940;DHT22;2995;-31.998;115.906;2024-02-26T06:19:06;33.10;99.90
5940;DHT22;2995;-31.998;115.906;2024-02-26T06:21:37;33.10;99.90
5940;DHT22;2995;-31.998;115.906;2024-02-26T06:24:10;33.00;99.90
5940;DHT22;2995;-31.998;115.906;2024-02-26T06:26:42;33.00;99.90
5940;DHT22;2995;-31.998;115.906;2024-02-26T06:29:13;32.90;99.90
5940;DHT22;2995;-31.998;115.906;2024-02-26T06:31:44;32.80;99.90
5940;DHT22;2995;-31.998;115.906;2024-02-26T06:34:16;32.70;99.90
5940;DHT22;2995;-31.998;115.906;2024-02-26T06:36:47;32.80;99.90
5940;DHT22;2995;-31.998;115.906;2024-02-26T06:39:20;32.60;99.90
5940;DHT22;2995;-31.998;115.906;2024-02-26T06:41:52;32.60;99.90
5940;DHT22;2995;-31.998;115.906;2024-02-26T06:44:28;32.50;99.90
5940;DHT22;2995;-31.998;115.906;2024-02-26T06:47:00;32.50;99.90
5940;DHT22;2995;-31.998;115.906;2024-02-26T06:49:32;32.60;99.90
5940;DHT22;2995;-31.998;115.906;2024-02-26T06:52:03;32.30;99.90
5940;DHT22;2995;-31.998;115.906;2024-02-26T06:54:37;32.20;99.90
5940;DHT22;2995;-31.998;115.906;2024-02-26T06:57:08;32.10;99.90
5940;DHT22;2995;-31.998;115.906;2024-02-26T06:59:39;32.30;99.90
5940;DHT22;2995;-31.998;115.906;2024-02-26T07:02:14;32.30;99.90
5940;DHT22;2995;-31.998;115.906;2024-02-26T07:04:45;32.10;99.90
5940;DHT22;2995;-31.998;115.906;2024-02-26T07:07:16;32.30;99.90
5940;DHT22;2995;-31.998;115.906;2024-02-26T07:09:50;32.20;99.90
5940;DHT22;2995;-31.998;115.906;2024-02-26T07:12:21;31.90;99.90
5940;DHT22;2995;-31.998;115.906;2024-02-26T07:14:52;31.90;99.90
5940;DHT22;2995;-31.998;115.906;2024-02-26T07:17:23;32.00;99.90
5940;DHT22;2995;-31.998;115.906;2024-02-26T07:19:54;31.90;99.90
5940;DHT22;2995;-31.998;115.906;2024-02-26T07:22:26;32.00;99.90
5940;DHT22;2995;-31.998;115.906;2024-02-26T07:24:59;31.70;99.90
5940;DHT22;2995;-31.998;115.906;2024-02-26T07:27:31;31.60;99.90
5940;DHT22;2995;-31.998;115.906;2024-02-26T07:30:03;31.60;99.90
5940;DHT22;2995;-31.998;115.906;2024-02-26T07:32:34;31.50;99.90
5940;DHT22;2995;-31.998;115.906;2024-02-26T07:35:06;31.30;99.90
5940;DHT22;2995;-31.998;115.906;2024-02-26T07:37:38;31.30;99.90
5940;DHT22;2995;-31.998;115.906;2024-02-26T07:40:12;31.20;99.90
5940;DHT22;2995;-31.998;115.906;2024-02-26T07:42:43;31.20;99.90
5940;DHT22;2995;-31.998;115.906;2024-02-26T07:45:14;31.20;99.90
5940;DHT22;2995;-31.998;115.906;2024-02-26T07:47:47;31.20;99.90
5940;DHT22;2995;-31.998;115.906;2024-02-26T07:50:19;31.00;99.90
5940;DHT22;2995;-31.998;115.906;2024-02-26T07:52:51;30.80;99.90
5940;DHT22;2995;-31.998;115.906;2024-02-26T07:55:24;30.80;99.90
5940;DHT22;2995;-31.998;115.906;2024-02-26T07:57:55;30.80;99.90
5940;DHT22;2995;-31.998;115.906;2024-02-26T08:00:26;30.60;99.90
5940;DHT22;2995;-31.998;115.906;2024-02-26T08:02:57;30.70;99.90
5940;DHT22;2995;-31.998;115.906;2024-02-26T08:05:29;30.70;99.90
5940;DHT22;2995;-31.998;115.906;2024-02-26T08:08:00;30.50;99.90
5940;DHT22;2995;-31.998;115.906;2024-02-26T08:10:33;30.50;99.90
5940;DHT22;2995;-31.998;115.906;2024-02-26T08:13:04;30.50;99.90
5940;DHT22;2995;-31.998;115.906;2024-02-26T08:15:36;30.40;99.90
5940;DHT22;2995;-31.998;115.906;2024-02-26T08:18:07;30.50;99.90
5940;DHT22;2995;-31.998;115.906;2024-02-26T08:20:39;30.50;99.90
5940;DHT22;2995;-31.998;115.906;2024-02-26T08:23:10;30.30;99.90
5940;DHT22;2995;-31.998;115.906;2024-02-26T08:25:43;30.30;99.90
5940;DHT22;2995;-31.998;115.906;2024-02-26T08:28:15;30.30;99.90
5940;DHT22;2995;-31.998;115.906;2024-02-26T08:30:47;30.20;99.90
5940;DHT22;2995;-31.998;115.906;2024-02-26T08:33:18;30.30;99.90
5940;DHT22;2995;-31.998;115.906;2024-02-26T08:35:49;30.30;99.90
5940;DHT22;2995;-31.998;115.906;2024-02-26T08:38:20;30.30;99.90
5940;DHT22;2995;-31.998;115.906;2024-02-26T08:40:53;30.20;99.90
5940;DHT22;2995;-31.998;115.906;2024-02-26T08:43:25;30.20;99.90
5940;DHT22;2995;-31.998;115.906;2024-02-26T08:45:56;30.10;99.90
5940;DHT22;2995;-31.998;115.906;2024-02-26T08:48:27;30.20;99.90
5940;DHT22;2995;-31.998;115.906;2024-02-26T08:50:59;30.20;99.90
5940;DHT22;2995;-31.998;115.906;2024-02-26T08:53:30;30.10;99.90
5940;DHT22;2995;-31.998;115.906;2024-02-26T08:56:04;29.80;99.90
5940;DHT22;2995;-31.998;115.906;2024-02-26T08:58:35;29.70;99.90
5940;DHT22;2995;-31.998;115.906;2024-02-26T09:01:06;29.60;99.90
5940;DHT22;2995;-31.998;115.906;2024-02-26T09:03:38;29.40;99.90
5940;DHT22;2995;-31.998;115.906;2024-02-26T09:06:09;29.30;99.90
5940;DHT22;2995;-31.998;115.906;2024-02-26T09:08:41;29.30;99.90
5940;DHT22;2995;-31.998;115.906;2024-02-26T09:11:14;29.30;99.90
5940;DHT22;2995;-31.998;115.906;2024-02-26T09:13:46;29.40;99.90
5940;DHT22;2995;-31.998;115.906;2024-02-26T09:16:17;29.30;99.90
5940;DHT22;2995;-31.998;115.906;2024-02-26T09:18:48;29.30;99.90
5940;DHT22;2995;-31.998;115.906;2024-02-26T09:21:19;29.20;99.90
5940;DHT22;2995;-31.998;115.906;2024-02-26T09:23:51;29.20;99.90
5940;DHT22;2995;-31.998;115.906;2024-02-26T09:26:24;29.20;99.90
5940;DHT22;2995;-31.998;115.906;2024-02-26T09:28:55;29.30;99.90
5940;DHT22;2995;-31.998;115.906;2024-02-26T09:31:27;29.20;99.90
5940;DHT22;2995;-31.998;115.906;2024-02-26T09:33:58;29.20;99.90
5940;DHT22;2995;-31.998;115.906;2024-02-26T09:36:29;29.30;99.90
5940;DHT22;2995;-31.998;115.906;2024-02-26T09:39:00;29.10;99.90
5940;DHT22;2995;-31.998;115.906;2024-02-26T09:41:33;29.10;99.90
5940;DHT22;2995;-31.998;115.906;2024-02-26T09:44:06;29.10;99.90
5940;DHT22;2995;-31.998;115.906;2024-02-26T09:46:37;29.10;99.90
5940;DHT22;2995;-31.998;115.906;2024-02-26T09:49:10;28.90;99.90
5940;DHT22;2995;-31.998;115.906;2024-02-26T09:51:42;28.80;99.90
5940;DHT22;2995;-31.998;115.906;2024-02-26T09:54:14;28.70;99.90
5940;DHT22;2995;-31.998;115.906;2024-02-26T09:56:50;28.50;99.90
5940;DHT22;2995;-31.998;115.906;2024-02-26T09:59:22;28.50;99.90
5940;DHT22;2995;-31.998;115.906;2024-02-26T10:01:54;28.50;99.90
5940;DHT22;2995;-31.998;115.906;2024-02-26T10:04:27;28.50;99.90
5940;DHT22;2995;-31.998;115.906;2024-02-26T10:06:59;28.40;99.90
5940;DHT22;2995;-31.998;115.906;2024-02-26T10:09:32;28.40;99.90
5940;DHT22;2995;-31.998;115.906;2024-02-26T10:12:06;28.10;99.90
5940;DHT22;2995;-31.998;115.906;2024-02-26T10:14:38;28.00;99.90
5940;DHT22;2995;-31.998;115.906;2024-02-26T10:17:10;27.90;99.90
5940;DHT22;2995;-31.998;115.906;2024-02-26T10:19:41;27.70;99.90
5940;DHT22;2995;-31.998;115.906;2024-02-26T10:22:13;27.80;99.90
5940;DHT22;2995;-31.998;115.906;2024-02-26T10:24:44;27.60;99.90
5940;DHT22;2995;-31.998;115.906;2024-02-26T10:27:20;27.50;99.90
5940;DHT22;2995;-31.998;115.906;2024-02-26T10:29:53;27.50;99.90
5940;DHT22;2995;-31.998;115.906;2024-02-26T10:32:27;27.50;99.90
5940;DHT22;2995;-31.998;115.906;2024-02-26T10:34:59;27.50;99.90
5940;DHT22;2995;-31.998;115.906;2024-02-26T10:37:31;27.40;99.90
5940;DHT22;2995;-31.998;115.906;2024-02-26T10:40:02;27.40;99.90
5940;DHT22;2995;-31.998;115.906;2024-02-26T10:42:35;27.20;99.90
5940;DHT22;2995;-31.998;115.906;2024-02-26T10:45:08;27.20;99.90
5940;DHT22;2995;-31.998;115.906;2024-02-26T10:47:40;27.00;99.90
5940;DHT22;2995;-31.998;115.906;2024-02-26T10:50:14;26.90;99.90
5940;DHT22;2995;-31.998;115.906;2024-02-26T10:52:46;26.90;99.90
5940;DHT22;2995;-31.998;115.906;2024-02-26T10:55:17;26.90;99.90
5940;DHT22;2995;-31.998;115.906;2024-02-26T10:57:54;26.90;99.90
5940;DHT22;2995;-31.998;115.906;2024-02-26T11:00:26;26.70;99.90
5940;DHT22;2995;-31.998;115.906;2024-02-26T11:02:58;26.60;99.90
5940;DHT22;2995;-31.998;115.906;2024-02-26T11:05:31;26.60;99.90
5940;DHT22;2995;-31.998;115.906;2024-02-26T11:08:04;26.50;99.90
5940;DHT22;2995;-31.998;115.906;2024-02-26T11:10:36;26.40;99.90
5940;DHT22;2995;-31.998;115.906;2024-02-26T11:13:12;26.30;99.90
5940;DHT22;2995;-31.998;115.906;2024-02-26T11:15:46;26.20;99.90
5940;DHT22;2995;-31.998;115.906;2024-02-26T11:18:19;26.10;99.90
5940;DHT22;2995;-31.998;115.906;2024-02-26T11:20:52;26.10;99.90
5940;DHT22;2995;-31.998;115.906;2024-02-26T11:23:25;25.80;99.90
5940;DHT22;2995;-31.998;115.906;2024-02-26T11:26:00;25.80;99.90
5940;DHT22;2995;-31.998;115.906;2024-02-26T11:28:34;25.60;99.90
5940;DHT22;2995;-31.998;115.906;2024-02-26T11:31:06;25.50;99.90
5940;DHT22;2995;-31.998;115.906;2024-02-26T11:33:38;25.40;99.90
5940;DHT22;2995;-31.998;115.906;2024-02-26T11:36:11;25.30;99.90
5940;DHT22;2995;-31.998;115.906;2024-02-26T11:38:43;25.50;99.90
5940;DHT22;2995;-31.998;115.906;2024-02-26T11:41:18;25.30;99.90
5940;DHT22;2995;-31.998;115.906;2024-02-26T11:43:57;25.20;99.90
5940;DHT22;2995;-31.998;115.906;2024-02-26T11:46:29;25.20;99.90
5940;DHT22;2995;-31.998;115.906;2024-02-26T11:49:02;25.10;99.90
5940;DHT22;2995;-31.998;115.906;2024-02-26T11:51:34;25.10;99.90
5940;DHT22;2995;-31.998;115.906;2024-02-26T11:54:06;25.00;99.90
5940;DHT22;2995;-31.998;115.906;2024-02-26T11:56:41;24.90;99.90
5940;DHT22;2995;-31.998;115.906;2024-02-26T11:59:38;24.80;99.90
5940;DHT22;2995;-31.998;115.906;2024-02-26T12:02:10;24.80;99.90
5940;DHT22;2995;-31.998;115.906;2024-02-26T12:04:41;24.90;99.90
5940;DHT22;2995;-31.998;115.906;2024-02-26T12:07:13;24.90;99.90
5940;DHT22;2995;-31.998;115.906;2024-02-26T12:09:45;24.80;99.90
5940;DHT22;2995;-31.998;115.906;2024-02-26T12:12:19;24.80;99.90
5940;DHT22;2995;-31.998;115.906;2024-02-26T12:14:57;24.70;99.90
5940;DHT22;2995;-31.998;115.906;2024-02-26T12:17:29;24.50;99.90
5940;DHT22;2995;-31.998;115.906;2024-02-26T12:20:10;24.60;99.90
5940;DHT22;2995;-31.998;115.906;2024-02-26T12:22:42;24.60;99.90
5940;DHT22;2995;-31.998;115.906;2024-02-26T12:25:16;24.50;99.90
5940;DHT22;2995;-31.998;115.906;2024-02-26T12:27:47;24.40;99.90
5940;DHT22;2995;-31.998;115.906;2024-02-26T12:30:21;24.50;99.90
5940;DHT22;2995;-31.998;115.906;2024-02-26T12:32:54;24.50;99.90
5940;DHT22;2995;-31.998;115.906;2024-02-26T12:35:26;24.50;99.90
5940;DHT22;2995;-31.998;115.906;2024-02-26T12:37:59;24.40;99.90
5940;DHT22;2995;-31.998;115.906;2024-02-26T12:40:32;24.30;99.90
5940;DHT22;2995;-31.998;115.906;2024-02-26T12:43:03;24.30;99.90
5940;DHT22;2995;-31.998;115.906;2024-02-26T12:45:42;24.30;99.90
5940;DHT22;2995;-31.998;115.906;2024-02-26T12:48:15;24.00;99.90
5940;DHT22;2995;-31.998;115.906;2024-02-26T12:50:46;23.90;99.90
5940;DHT22;2995;-31.998;115.906;2024-02-26T12:53:18;23.90;99.90
5940;DHT22;2995;-31.998;115.906;2024-02-26T12:55:49;23.80;99.90
5940;DHT22;2995;-31.998;115.906;2024-02-26T12:58:21;23.80;99.90
5940;DHT22;2995;-31.998;115.906;2024-02-26T13:00:55;23.70;99.90
5940;DHT22;2995;-31.998;115.906;2024-02-26T13:03:26;23.60;99.90
5940;DHT22;2995;-31.998;115.906;2024-02-26T13:05:58;23.50;99.90
5940;DHT22;2995;-31.998;115.906;2024-02-26T13:08:33;23.50;99.90
5940;DHT22;2995;-31.998;115.906;2024-02-26T13:11:04;23.50;99.90
5940;DHT22;2995;-31.998;115.906;2024-02-26T13:13:36;23.50;99.90
5940;DHT22;2995;-31.998;115.906;2024-02-26T13:16:14;23.40;99.90
5940;DHT22;2995;-31.998;115.906;2024-02-26T13:18:45;23.30;99.90
5940;DHT22;2995;-31.998;115.906;2024-02-26T13:21:17;23.30;99.90
5940;DHT22;2995;-31.998;115.906;2024-02-26T13:23:51;23.20;99.90
5940;DHT22;2995;-31.998;115.906;2024-02-26T13:26:24;23.20;99.90
5940;DHT22;2995;-31.998;115.906;2024-02-26T13:29:02;23.00;99.90
5940;DHT22;2995;-31.998;115.906;2024-02-26T13:31:40;23.00;99.90
5940;DHT22;2995;-31.998;115.906;2024-02-26T13:34:11;22.90;99.90
5940;DHT22;2995;-31.998;115.906;2024-02-26T13:36:42;23.10;99.90
5940;DHT22;2995;-31.998;115.906;2024-02-26T13:39:22;23.00;99.90
5940;DHT22;2995;-31.998;115.906;2024-02-26T13:41:54;23.00;99.90
5940;DHT22;2995;-31.998;115.906;2024-02-26T13:44:25;23.00;99.90
5940;DHT22;2995;-31.998;115.906;2024-02-26T13:46:59;22.80;99.90
5940;DHT22;2995;-31.998;115.906;2024-02-26T13:49:30;22.80;99.90
5940;DHT22;2995;-31.998;115.906;2024-02-26T13:52:01;22.80;99.90
5940;DHT22;2995;-31.998;115.906;2024-02-26T13:54:32;22.70;99.90
5940;DHT22;2995;-31.998;115.906;2024-02-26T13:57:06;22.80;99.90
5940;DHT22;2995;-31.998;115.906;2024-02-26T13:59:37;22.80;99.90
5940;DHT22;2995;-31.998;115.906;2024-02-26T14:02:12;22.70;99.90
5940;DHT22;2995;-31.998;115.906;2024-02-26T14:04:44;22.70;99.90
5940;DHT22;2995;-31.998;115.906;2024-02-26T14:07:16;22.70;99.90
5940;DHT22;2995;-31.998;115.906;2024-02-26T14:09:48;22.80;99.90
5940;DHT22;2995;-31.998;115.906;2024-02-26T14:12:19;22.70;99.90
5940;DHT22;2995;-31.998;115.906;2024-02-26T14:14:51;22.70;99.90
5940;DHT22;2995;-31.998;115.906;2024-02-26T14:17:25;22.60;99.90
5940;DHT22;2995;-31.998;115.906;2024-02-26T14:19:56;22.50;99.90
5940;DHT22;2995;-31.998;115.906;2024-02-26T14:22:28;22.50;99.90
5940;DHT22;2995;-31.998;115.906;2024-02-26T14:24:59;22.50;99.90
5940;DHT22;2995;-31.998;115.906;2024-02-26T14:27:30;22.60;99.90
5940;DHT22;2995;-31.998;115.906;2024-02-26T14:30:01;22.50;99.90
5940;DHT22;2995;-31.998;115.906;2024-02-26T14:32:35;22.50;99.90
5940;DHT22;2995;-31.998;115.906;2024-02-26T14:35:07;22.60;99.90
5940;DHT22;2995;-31.998;115.906;2024-02-26T14:37:39;22.60;99.90
5940;DHT22;2995;-31.998;115.906;2024-02-26T14:40:12;22.60;99.90
5940;DHT22;2995;-31.998;115.906;2024-02-26T14:42:44;22.60;99.90
5940;DHT22;2995;-31.998;115.906;2024-02-26T14:45:15;22.50;99.90
5940;DHT22;2995;-31.998;115.906;2024-02-26T14:47:49;22.60;99.90
5940;DHT22;2995;-31.998;115.906;2024-02-26T14:50:20;22.60;99.90
5940;DHT22;2995;-31.998;115.906;2024-02-26T14:52:51;22.60;99.90
5940;DHT22;2995;-31.998;115.906;2024-02-26T14:55:23;22.60;99.90
5940;DHT22;2995;-31.998;115.906;2024-02-26T14:57:54;22.50;99.90
5940;DHT22;2995;-31.998;115.906;2024-02-26T15:00:25;22.50;99.90
5940;DHT22;2995;-31.998;115.906;2024-02-26T15:02:58;22.50;99.90
5940;DHT22;2995;-31.998;115.906;2024-02-26T15:05:29;22.50;99.90
5940;DHT22;2995;-31.998;115.906;2024-02-26T15:08:01;22.50;99.90
5940;DHT22;2995;-31.998;115.906;2024-02-26T15:10:32;22.50;99.90
5940;DHT22;2995;-31.998;115.906;2024-02-26T15:13:04;22.60;99.90
5940;DHT22;2995;-31.998;115.906;2024-02-26T15:15:36;22.60;99.90
5940;DHT22;2995;-31.998;115.906;2024-02-26T15:18:09;22.50;99.90
5940;DHT22;2995;-31.998;115.906;2024-02-26T15:20:43;22.50;99.90
5940;DHT22;2995;-31.998;115.906;2024-02-26T15:23:15;22.40;99.90
5940;DHT22;2995;-31.998;115.906;2024-02-26T15:25:47;22.40;99.90
5940;DHT22;2995;-31.998;115.906;2024-02-26T15:28:18;22.30;99.90
5940;DHT22;2995;-31.998;115.906;2024-02-26T15:30:49;22.30;99.90
5940;DHT22;2995;-31.998;115.906;2024-02-26T15:33:23;22.30;99.90
5940;DHT22;2995;-31.998;115.906;2024-02-26T15:35:55;22.30;99.90
5940;DHT22;2995;-31.998;115.906;2024-02-26T15:38:26;22.40;99.90
5940;DHT22;2995;-31.998;115.906;2024-02-26T15:40:57;22.40;99.90
5940;DHT22;2995;-31.998;115.906;2024-02-26T15:43:29;22.30;99.90
5940;DHT22;2995;-31.998;115.906;2024-02-26T15:46:01;22.30;99.90